Brighton, Utah
Current Conditions -  °F | °C
As of 12:53 PM on Friday 31 Oct 2014 (Local Time) from KSLC Reporting Station
Scattered Clouds Scattered Clouds  
Wind Chill: 74°   Ceiling: Unl
Heat Index: 74°   Visibility: 10mi
Dew Point: 22°   Wind: 23mph
Humidity: 14%   Direction: 160°SSE
Pressure: 29.92"   Gusts: 31mph
Location:  40.6239°N, 111.817°W
Report Text: KSLC 311853Z 16020G27KT 10SM SCT170 SCT230 23/M06 A2992 RMK AO2 PK WND 16028/1843 SLP089 ACSL DSNT NE AND SW-NW T02331056
Loading
Personal Weather Stations






























Interactive Weather Map
Tropical Storm Tracking
New forecast layout! Learn more

10-Day Weather Forecast

Advertisements
Track Severe Weather on mobile